createdAt,value
2018-09-11T00:04:05.064Z,7.80
2018-09-11T00:09:03.603Z,9.23
2018-09-11T00:14:00.983Z,8.67
2018-09-11T00:18:58.367Z,9.40
2018-09-11T00:23:55.746Z,8.30
2018-09-11T00:28:53.188Z,8.70
2018-09-11T00:33:50.560Z,9.40
2018-09-11T00:38:47.944Z,9.80
2018-09-11T00:43:45.350Z,10.40
2018-09-11T00:48:42.712Z,9.67
2018-09-11T00:53:40.100Z,10.30
2018-09-11T00:58:37.506Z,10.70
2018-09-11T01:03:34.896Z,11.00
2018-09-11T01:08:32.311Z,10.60
2018-09-11T01:13:29.707Z,11.43
2018-09-11T01:18:27.191Z,11.10
2018-09-11T01:23:24.623Z,11.37
2018-09-11T01:28:22.011Z,11.50
2018-09-11T01:33:19.400Z,10.40
2018-09-11T01:38:16.904Z,10.73
2018-09-11T01:43:14.284Z,9.80
2018-09-11T01:48:11.698Z,9.67
2018-09-11T01:53:09.088Z,9.93
2018-09-11T01:58:06.498Z,9.57
2018-09-11T02:03:03.967Z,10.83
2018-09-11T02:08:01.363Z,9.83
2018-09-11T02:12:58.786Z,9.40
2018-09-11T02:17:56.226Z,10.13
2018-09-11T02:22:53.611Z,8.50
2018-09-11T02:27:51.834Z,9.77
2018-09-11T02:32:49.211Z,9.47
2018-09-11T02:37:46.576Z,9.40
2018-09-11T02:42:43.999Z,10.90
2018-09-11T02:47:41.379Z,12.23
2018-09-11T02:52:38.971Z,12.90
2018-09-11T02:57:36.423Z,10.60
2018-09-11T03:02:33.785Z,12.07
2018-09-11T03:07:31.187Z,12.70
2018-09-11T03:12:28.571Z,11.63
2018-09-11T03:17:25.939Z,14.40
2018-09-11T03:22:23.359Z,13.80
2018-09-11T03:27:20.745Z,15.00
2018-09-11T03:32:18.131Z,13.60
2018-09-11T03:37:15.523Z,14.83
2018-09-11T03:42:12.947Z,14.13
2018-09-11T03:47:10.354Z,13.13
2018-09-11T03:52:07.847Z,13.13
2018-09-11T03:57:05.339Z,11.67
2018-09-11T04:02:02.791Z,13.20
2018-09-11T04:07:00.435Z,11.50
2018-09-11T04:11:57.811Z,10.50
2018-09-11T04:16:55.195Z,10.07
2018-09-11T04:21:52.567Z,10.57
2018-09-11T04:26:50.010Z,11.57
2018-09-11T04:31:47.450Z,9.80
2018-09-11T04:36:44.851Z,8.97
2018-09-11T04:41:42.297Z,9.30
2018-09-11T04:46:39.700Z,9.50
2018-09-11T04:51:37.079Z,9.40
2018-09-11T04:56:34.514Z,10.13
2018-09-11T05:01:31.919Z,10.23
2018-09-11T05:06:29.291Z,11.00
2018-09-11T05:11:26.826Z,8.30
2018-09-11T05:16:24.211Z,8.10
2018-09-11T05:21:21.615Z,6.57
2018-09-11T05:26:19.025Z,6.57
2018-09-11T05:31:16.942Z,7.60
2018-09-11T05:36:14.331Z,5.77
2018-09-11T05:41:11.711Z,6.50
2018-09-11T05:46:09.147Z,5.80
2018-09-11T05:51:06.674Z,6.27
2018-09-11T05:56:04.071Z,5.30
2018-09-11T06:01:01.476Z,5.90
2018-09-11T06:05:59.175Z,5.57
2018-09-11T06:10:56.595Z,5.50
2018-09-11T06:15:53.970Z,5.43
2018-09-11T06:20:51.360Z,4.57
2018-09-11T06:25:48.780Z,4.03
2018-09-11T06:30:46.142Z,5.10
2018-09-11T06:35:43.532Z,4.67
2018-09-11T06:40:40.926Z,3.73
2018-09-11T06:45:38.491Z,3.70
2018-09-11T06:50:35.887Z,3.97
2018-09-11T06:55:33.295Z,3.90
2018-09-11T07:00:30.924Z,2.40
2018-09-11T07:05:28.325Z,3.90
2018-09-11T07:10:26.064Z,3.37
2018-09-11T07:15:23.455Z,3.40
2018-09-11T07:20:21.091Z,4.00
2018-09-11T07:25:18.292Z,3.73
2018-09-11T07:30:15.777Z,2.97
2018-09-11T07:35:13.143Z,2.63
2018-09-11T07:40:11.612Z,4.07
2018-09-11T07:45:09.076Z,4.87
2018-09-11T07:50:06.593Z,3.57
2018-09-11T07:55:03.994Z,2.47
2018-09-11T08:00:01.412Z,3.90
2018-09-11T08:04:58.904Z,3.47
2018-09-11T08:09:57.350Z,2.67
2018-09-11T08:14:54.771Z,3.47
2018-09-11T08:19:52.243Z,2.97
2018-09-11T08:24:49.566Z,3.03
2018-09-11T08:29:46.969Z,2.33
2018-09-11T08:34:44.412Z,1.63
2018-09-11T08:39:51.003Z,2.60
2018-09-11T08:44:48.414Z,2.00
2018-09-11T08:49:45.840Z,1.80
2018-09-11T08:54:43.239Z,1.50
2018-09-11T08:59:40.651Z,1.83
2018-09-11T09:04:38.056Z,1.23
2018-09-11T09:09:37.402Z,1.70
2018-09-11T09:14:34.839Z,1.50
2018-09-11T09:19:32.233Z,2.10
2018-09-11T09:24:29.623Z,1.50
2018-09-11T09:29:27.023Z,1.30
2018-09-11T09:34:24.423Z,1.40
2018-09-11T09:39:38.518Z,1.30
2018-09-11T09:44:36.644Z,0.90
2018-09-11T09:49:34.051Z,1.50
2018-09-11T09:54:31.439Z,1.73
2018-09-11T09:59:28.831Z,1.53
2018-09-11T10:04:26.242Z,1.27
2018-09-11T10:09:34.726Z,1.10
2018-09-11T10:14:32.186Z,1.97
2018-09-11T10:19:29.575Z,1.33
2018-09-11T10:24:26.959Z,1.50
2018-09-11T10:29:24.332Z,1.60
2018-09-11T10:34:21.774Z,1.53
2018-09-11T10:39:32.026Z,1.60
2018-09-11T10:44:29.489Z,2.60
2018-09-11T10:49:26.898Z,1.83
2018-09-11T10:54:24.276Z,2.20
2018-09-11T10:59:21.661Z,1.07
2018-09-11T11:04:19.137Z,1.80
2018-09-11T11:09:18.210Z,1.17
2018-09-11T11:14:15.647Z,1.60
2018-09-11T11:19:13.030Z,2.03
2018-09-11T11:24:10.430Z,0.97
2018-09-11T11:29:07.855Z,1.50
2018-09-11T11:34:05.432Z,1.50
2018-09-11T11:39:07.912Z,1.37
2018-09-11T11:44:06.431Z,1.50
2018-09-11T11:49:04.108Z,1.50
2018-09-11T11:54:01.504Z,1.50
2018-09-11T11:58:58.992Z,1.50
2018-09-11T12:03:56.378Z,1.70
2018-09-11T12:08:53.803Z,1.43
2018-09-11T12:13:51.440Z,0.90
2018-09-11T12:18:48.816Z,1.30
2018-09-11T12:23:46.217Z,1.33
2018-09-11T12:28:47.543Z,1.67
2018-09-11T12:33:46.182Z,2.90
2018-09-11T12:38:44.926Z,1.30
2018-09-11T12:43:49.973Z,1.73
2018-09-11T12:48:49.154Z,1.40
2018-09-11T12:53:49.547Z,1.43
2018-09-11T12:58:48.358Z,1.50
2018-09-11T13:03:47.522Z,1.73
2018-09-11T13:08:48.004Z,1.70
2018-09-11T13:13:46.018Z,1.30
2018-09-11T13:18:44.325Z,1.23
2018-09-11T13:23:43.142Z,1.97
2018-09-11T13:28:40.598Z,1.73
2018-09-11T13:33:37.985Z,1.30
2018-09-11T13:38:35.384Z,1.43
2018-09-11T13:43:32.743Z,1.30
2018-09-11T13:48:30.134Z,1.43
2018-09-11T13:53:27.507Z,1.13
2018-09-11T13:58:24.910Z,1.67
2018-09-11T14:03:22.308Z,1.63
2018-09-11T14:08:19.718Z,1.50
2018-09-11T14:13:17.107Z,1.87
2018-09-11T14:18:14.503Z,1.33
2018-09-11T14:23:11.887Z,1.80
2018-09-11T14:28:09.263Z,2.23
2018-09-11T14:33:06.668Z,2.33
2018-09-11T14:38:04.116Z,1.90
2018-09-11T14:43:01.543Z,2.00
2018-09-11T14:47:58.999Z,1.60
2018-09-11T14:52:56.379Z,1.90
2018-09-11T14:57:53.775Z,1.10
2018-09-11T15:02:51.191Z,1.87
2018-09-11T15:07:48.621Z,1.87
2018-09-11T15:12:46.011Z,1.53
2018-09-11T15:17:43.386Z,1.47
2018-09-11T15:22:40.853Z,1.90
2018-09-11T15:27:38.194Z,1.90
2018-09-11T15:32:35.615Z,2.30
2018-09-11T15:37:33.023Z,1.93
2018-09-11T15:42:30.470Z,1.97
2018-09-11T15:47:27.859Z,1.07
2018-09-11T15:52:29.662Z,2.40
2018-09-11T15:57:28.303Z,1.83
2018-09-11T16:02:25.767Z,1.60
2018-09-11T16:07:23.366Z,2.50
2018-09-11T16:12:20.855Z,1.80
2018-09-11T16:17:18.274Z,2.10
2018-09-11T16:22:15.680Z,2.00
2018-09-11T16:27:13.072Z,1.60
2018-09-11T16:32:10.519Z,1.63
2018-09-11T16:37:07.942Z,1.97
2018-09-11T16:42:05.672Z,2.53
2018-09-11T16:47:03.084Z,2.13
2018-09-11T16:52:00.447Z,2.50
2018-09-11T16:56:57.846Z,2.30
2018-09-11T17:01:55.295Z,2.07
2018-09-11T17:06:52.687Z,2.00
2018-09-11T17:11:50.129Z,2.10
2018-09-11T17:16:48.326Z,1.97
2018-09-11T17:21:45.713Z,2.17
2018-09-11T17:26:43.117Z,2.57
2018-09-11T17:31:40.548Z,2.20
2018-09-11T17:36:39.437Z,2.43
2018-09-11T17:41:37.268Z,2.23
2018-09-11T17:46:34.818Z,2.17
2018-09-11T17:51:32.244Z,2.33
2018-09-11T17:56:29.707Z,2.00
2018-09-11T18:01:27.168Z,2.10
2018-09-11T18:06:24.571Z,2.23
2018-09-11T18:11:21.955Z,2.63
2018-09-11T18:16:19.378Z,2.20
2018-09-11T18:21:16.851Z,2.70
2018-09-11T18:26:14.303Z,2.40
2018-09-11T18:31:11.645Z,2.20
2018-09-11T18:36:09.040Z,2.13
2018-09-11T18:41:06.447Z,2.30
2018-09-11T18:46:03.851Z,2.30
2018-09-11T18:51:01.226Z,2.47
2018-09-11T18:55:58.600Z,2.23
2018-09-11T19:00:55.979Z,2.17
2018-09-11T19:05:53.368Z,2.60
2018-09-11T19:10:50.744Z,2.40
2018-09-11T19:15:48.174Z,2.37
2018-09-11T19:20:45.531Z,2.47
2018-09-11T19:25:42.905Z,2.17
2018-09-11T19:30:40.275Z,2.40
2018-09-11T19:35:37.647Z,2.60
2018-09-11T19:40:35.055Z,2.40
2018-09-11T19:45:32.430Z,2.47
2018-09-11T19:50:29.881Z,2.90
2018-09-11T19:55:27.246Z,2.33
2018-09-11T20:00:24.632Z,2.30
2018-09-11T20:05:21.995Z,2.53
2018-09-11T20:10:20.426Z,2.23
2018-09-11T20:15:17.802Z,2.00
2018-09-11T20:20:15.171Z,2.43
2018-09-11T20:25:12.621Z,2.70
2018-09-11T20:30:10.079Z,2.30
2018-09-11T20:35:07.555Z,3.00
2018-09-11T20:40:06.326Z,3.37
2018-09-11T20:45:03.793Z,2.20
2018-09-11T20:50:01.219Z,2.53
2018-09-11T20:54:58.618Z,3.90
2018-09-11T20:59:56.003Z,4.33
2018-09-11T21:04:53.383Z,2.33
2018-09-11T21:10:00.983Z,5.27
2018-09-11T21:14:58.423Z,2.60
2018-09-11T21:19:55.792Z,2.60
2018-09-11T21:24:53.167Z,2.30
2018-09-11T21:29:50.583Z,3.13
2018-09-11T21:34:47.971Z,2.93
2018-09-11T21:39:45.365Z,2.80
2018-09-11T21:44:42.740Z,2.20
2018-09-11T21:49:40.136Z,2.90
2018-09-11T21:54:37.554Z,2.73
2018-09-11T21:59:34.932Z,3.03
2018-09-11T22:04:32.311Z,2.90
2018-09-11T22:09:33.299Z,2.47
2018-09-11T22:14:30.704Z,2.47
2018-09-11T22:19:28.083Z,2.10
2018-09-11T22:24:25.463Z,3.40
2018-09-11T22:29:22.883Z,2.60
2018-09-11T22:34:20.283Z,2.50
2018-09-11T22:39:31.277Z,2.30
2018-09-11T22:44:28.813Z,2.90
2018-09-11T22:49:26.187Z,2.90
2018-09-11T22:54:23.566Z,2.73
2018-09-11T22:59:20.939Z,2.80
2018-09-11T23:04:18.312Z,3.17
2018-09-11T23:09:16.578Z,3.20
2018-09-11T23:14:14.168Z,2.67
2018-09-11T23:19:11.555Z,2.70
2018-09-11T23:24:08.935Z,2.80
2018-09-11T23:29:06.331Z,2.50
2018-09-11T23:34:03.735Z,3.20
2018-09-11T23:39:01.124Z,3.67
2018-09-11T23:43:58.567Z,3.20
2018-09-11T23:48:55.983Z,3.10
2018-09-11T23:53:53.383Z,3.27
2018-09-11T23:58:51.280Z,3.37
